sensor_id;sensor_type;location;lat;lon;timestamp;pressure;altitude;pressure_sealevel;temperature;humidity
18850;BME280;4989;48.772;9.154;2023-03-14T00:03:00;96400.41;;;10.56;100.00
18850;BME280;4989;48.772;9.154;2023-03-14T00:08:02;96390.88;;;10.61;100.00
18850;BME280;4989;48.772;9.154;2023-03-14T00:13:05;96402.59;;;10.67;100.00
18850;BME280;4989;48.772;9.154;2023-03-14T00:18:07;96399.81;;;10.52;100.00
18850;BME280;4989;48.772;9.154;2023-03-14T00:23:10;96375.53;;;10.48;100.00
18850;BME280;4989;48.772;9.154;2023-03-14T00:28:12;96362.31;;;10.65;100.00
18850;BME280;4989;48.772;9.154;2023-03-14T00:33:15;96374.63;;;10.51;100.00
18850;BME280;4989;48.772;9.154;2023-03-14T00:38:17;96371.31;;;10.47;100.00
18850;BME280;4989;48.772;9.154;2023-03-14T00:43:21;96383.69;;;10.48;100.00
18850;BME280;4989;48.772;9.154;2023-03-14T00:48:24;96374.75;;;10.57;100.00
18850;BME280;4989;48.772;9.154;2023-03-14T00:53:27;96379.75;;;10.49;100.00
18850;BME280;4989;48.772;9.154;2023-03-14T00:58:29;96381.09;;;10.54;100.00
18850;BME280;4989;48.772;9.154;2023-03-14T01:03:32;96388.78;;;10.55;100.00
18850;BME280;4989;48.772;9.154;2023-03-14T01:08:34;96402.59;;;10.67;100.00
18850;BME280;4989;48.772;9.154;2023-03-14T01:13:37;96405.91;;;10.71;100.00
18850;BME280;4989;48.772;9.154;2023-03-14T01:18:42;96394.66;;;10.87;100.00
18850;BME280;4989;48.772;9.154;2023-03-14T01:23:46;96390.06;;;10.93;100.00
18850;BME280;4989;48.772;9.154;2023-03-14T01:28:51;96357.78;;;11.10;100.00
18850;BME280;4989;48.772;9.154;2023-03-14T01:33:54;96346.75;;;11.14;100.00
18850;BME280;4989;48.772;9.154;2023-03-14T01:38:57;96336.94;;;10.92;100.00
18850;BME280;4989;48.772;9.154;2023-03-14T01:44:00;96320.34;;;10.90;100.00
18850;BME280;4989;48.772;9.154;2023-03-14T01:49:31;96294.66;;;10.91;100.00
18850;BME280;4989;48.772;9.154;2023-03-14T01:59:55;96295.53;;;10.73;100.00
18850;BME280;4989;48.772;9.154;2023-03-14T02:04:59;96294.41;;;10.80;100.00
18850;BME280;4989;48.772;9.154;2023-03-14T02:10:08;96293.97;;;10.82;100.00
18850;BME280;4989;48.772;9.154;2023-03-14T02:15:11;96298.38;;;10.79;100.00
18850;BME280;4989;48.772;9.154;2023-03-14T02:21:00;96305.03;;;10.78;100.00
18850;BME280;4989;48.772;9.154;2023-03-14T02:26:10;96284.28;;;10.66;100.00
18850;BME280;4989;48.772;9.154;2023-03-14T02:31:16;96273.06;;;10.73;100.00
18850;BME280;4989;48.772;9.154;2023-03-14T02:36:19;96259.31;;;10.52;100.00
18850;BME280;4989;48.772;9.154;2023-03-14T02:41:23;96264.47;;;10.50;100.00
18850;BME280;4989;48.772;9.154;2023-03-14T02:46:35;96256.84;;;10.40;100.00
18850;BME280;4989;48.772;9.154;2023-03-14T02:51:39;96239.78;;;10.39;100.00
18850;BME280;4989;48.772;9.154;2023-03-14T02:56:43;96225.19;;;10.37;100.00
18850;BME280;4989;48.772;9.154;2023-03-14T03:01:47;96216.72;;;10.35;100.00
18850;BME280;4989;48.772;9.154;2023-03-14T03:06:50;96209.63;;;10.37;100.00
18850;BME280;4989;48.772;9.154;2023-03-14T03:11:53;96199.34;;;10.41;100.00
18850;BME280;4989;48.772;9.154;2023-03-14T03:16:58;96181.16;;;10.32;100.00
18850;BME280;4989;48.772;9.154;2023-03-14T03:22:01;96169.72;;;10.28;100.00
18850;BME280;4989;48.772;9.154;2023-03-14T03:27:03;96174.41;;;10.28;100.00
18850;BME280;4989;48.772;9.154;2023-03-14T03:32:06;96171.97;;;10.30;100.00
18850;BME280;4989;48.772;9.154;2023-03-14T03:37:08;96154.19;;;10.29;100.00
18850;BME280;4989;48.772;9.154;2023-03-14T03:42:15;96155.09;;;10.26;100.00
18850;BME280;4989;48.772;9.154;2023-03-14T03:47:18;96162.19;;;10.23;100.00
18850;BME280;4989;48.772;9.154;2023-03-14T03:52:21;96150.94;;;10.16;100.00
18850;BME280;4989;48.772;9.154;2023-03-14T03:57:23;96146.09;;;10.20;100.00
18850;BME280;4989;48.772;9.154;2023-03-14T04:02:26;96143.09;;;10.18;100.00
18850;BME280;4989;48.772;9.154;2023-03-14T04:07:31;96138.59;;;10.15;100.00
18850;BME280;4989;48.772;9.154;2023-03-14T04:12:33;96145.88;;;10.08;100.00
18850;BME280;4989;48.772;9.154;2023-03-14T04:17:46;96129.50;;;10.18;100.00
18850;BME280;4989;48.772;9.154;2023-03-14T04:22:50;96135.00;;;10.08;100.00
18850;BME280;4989;48.772;9.154;2023-03-14T04:27:53;96126.34;;;9.95;100.00
18850;BME280;4989;48.772;9.154;2023-03-14T04:32:59;96136.50;;;10.09;100.00
18850;BME280;4989;48.772;9.154;2023-03-14T04:38:05;96116.63;;;10.27;100.00
18850;BME280;4989;48.772;9.154;2023-03-14T04:43:11;96116.56;;;10.13;100.00
18850;BME280;4989;48.772;9.154;2023-03-14T04:48:21;96108.59;;;10.33;100.00
18850;BME280;4989;48.772;9.154;2023-03-14T04:53:24;96102.31;;;10.27;100.00
18850;BME280;4989;48.772;9.154;2023-03-14T04:58:29;96102.38;;;10.18;100.00
18850;BME280;4989;48.772;9.154;2023-03-14T05:03:34;96088.56;;;10.06;100.00
18850;BME280;4989;48.772;9.154;2023-03-14T05:09:07;96097.34;;;10.01;100.00
18850;BME280;4989;48.772;9.154;2023-03-14T05:14:36;96088.00;;;10.02;100.00
18850;BME280;4989;48.772;9.154;2023-03-14T05:19:51;96090.13;;;9.98;100.00
18850;BME280;4989;48.772;9.154;2023-03-14T05:25:09;96079.78;;;10.12;100.00
18850;BME280;4989;48.772;9.154;2023-03-14T05:30:21;96086.38;;;10.20;100.00
18850;BME280;4989;48.772;9.154;2023-03-14T05:35:33;96078.16;;;10.29;100.00
18850;BME280;4989;48.772;9.154;2023-03-14T05:40:38;96059.72;;;10.33;100.00
18850;BME280;4989;48.772;9.154;2023-03-14T05:46:14;96052.50;;;10.30;100.00
18850;BME280;4989;48.772;9.154;2023-03-14T05:51:47;96055.00;;;10.19;100.00
18850;BME280;4989;48.772;9.154;2023-03-14T05:57:01;96063.13;;;10.19;100.00
18850;BME280;4989;48.772;9.154;2023-03-14T06:02:13;96060.94;;;10.32;100.00
18850;BME280;4989;48.772;9.154;2023-03-14T06:07:26;96058.69;;;10.45;100.00
18850;BME280;4989;48.772;9.154;2023-03-14T06:12:29;96061.31;;;10.40;100.00
18850;BME280;4989;48.772;9.154;2023-03-14T06:17:32;96059.44;;;10.46;100.00
18850;BME280;4989;48.772;9.154;2023-03-14T06:22:40;96059.91;;;10.74;100.00
18850;BME280;4989;48.772;9.154;2023-03-14T06:27:46;96060.34;;;11.02;100.00
18850;BME280;4989;48.772;9.154;2023-03-14T06:32:50;96063.44;;;11.30;100.00
18850;BME280;4989;48.772;9.154;2023-03-14T06:37:56;96057.75;;;11.49;100.00
18850;BME280;4989;48.772;9.154;2023-03-14T06:42:58;96052.13;;;11.52;100.00
18850;BME280;4989;48.772;9.154;2023-03-14T06:48:04;96044.66;;;11.12;100.00
18850;BME280;4989;48.772;9.154;2023-03-14T06:53:14;96054.63;;;11.35;100.00
18850;BME280;4989;48.772;9.154;2023-03-14T06:58:18;96050.56;;;11.45;100.00
18850;BME280;4989;48.772;9.154;2023-03-14T07:03:21;96064.72;;;11.70;98.86
18850;BME280;4989;48.772;9.154;2023-03-14T07:08:26;96063.56;;;11.97;96.98
18850;BME280;4989;48.772;9.154;2023-03-14T07:13:28;96069.56;;;12.79;90.49
18850;BME280;4989;48.772;9.154;2023-03-14T07:18:36;96067.50;;;13.86;84.07
18850;BME280;4989;48.772;9.154;2023-03-14T07:23:40;96066.72;;;13.74;81.82
18850;BME280;4989;48.772;9.154;2023-03-14T07:28:43;96067.97;;;14.84;78.16
18850;BME280;4989;48.772;9.154;2023-03-14T07:33:50;96081.13;;;15.25;75.37
18850;BME280;4989;48.772;9.154;2023-03-14T07:38:55;96069.63;;;16.24;71.01
18850;BME280;4989;48.772;9.154;2023-03-14T07:44:08;96081.72;;;17.17;67.11
18850;BME280;4989;48.772;9.154;2023-03-14T07:49:10;96083.03;;;16.33;67.51
18850;BME280;4989;48.772;9.154;2023-03-14T07:54:13;96085.72;;;17.46;64.27
18850;BME280;4989;48.772;9.154;2023-03-14T07:59:15;96087.88;;;14.90;73.31
18850;BME280;4989;48.772;9.154;2023-03-14T08:04:18;96076.91;;;15.35;72.89
18850;BME280;4989;48.772;9.154;2023-03-14T08:09:21;96071.94;;;14.72;75.14
18850;BME280;4989;48.772;9.154;2023-03-14T08:14:23;96076.91;;;15.12;73.86
18850;BME280;4989;48.772;9.154;2023-03-14T08:19:26;96085.56;;;14.38;76.39
18850;BME280;4989;48.772;9.154;2023-03-14T08:24:28;96076.19;;;15.01;73.21
18850;BME280;4989;48.772;9.154;2023-03-14T08:29:31;96061.38;;;15.66;72.26
18850;BME280;4989;48.772;9.154;2023-03-14T08:34:34;96053.38;;;15.79;69.60
18850;BME280;4989;48.772;9.154;2023-03-14T08:39:36;96057.53;;;15.10;70.44
18850;BME280;4989;48.772;9.154;2023-03-14T08:44:39;96069.44;;;15.19;69.32
18850;BME280;4989;48.772;9.154;2023-03-14T08:49:45;96098.47;;;15.61;66.48
18850;BME280;4989;48.772;9.154;2023-03-14T08:54:47;96093.81;;;17.03;61.97
18850;BME280;4989;48.772;9.154;2023-03-14T08:59:50;96101.00;;;20.16;53.48
18850;BME280;4989;48.772;9.154;2023-03-14T09:04:53;96113.94;;;15.58;65.72
18850;BME280;4989;48.772;9.154;2023-03-14T09:09:56;96117.94;;;14.62;71.84
18850;BME280;4989;48.772;9.154;2023-03-14T09:14:59;96122.44;;;15.04;71.68
18850;BME280;4989;48.772;9.154;2023-03-14T09:20:03;96135.44;;;17.67;62.72
18850;BME280;4989;48.772;9.154;2023-03-14T09:25:09;96142.50;;;17.32;64.75
18850;BME280;4989;48.772;9.154;2023-03-14T09:30:13;96145.28;;;15.80;68.81
18850;BME280;4989;48.772;9.154;2023-03-14T09:35:15;96156.75;;;14.94;72.15
18850;BME280;4989;48.772;9.154;2023-03-14T09:40:19;96154.34;;;14.31;76.15
18850;BME280;4989;48.772;9.154;2023-03-14T09:45:28;96166.66;;;13.61;78.46
18850;BME280;4989;48.772;9.154;2023-03-14T09:50:38;96169.69;;;13.37;80.66
18850;BME280;4989;48.772;9.154;2023-03-14T09:55:44;96164.31;;;13.85;78.21
18850;BME280;4989;48.772;9.154;2023-03-14T10:00:47;96148.56;;;13.63;76.83
18850;BME280;4989;48.772;9.154;2023-03-14T10:05:51;96149.47;;;13.92;75.60
18850;BME280;4989;48.772;9.154;2023-03-14T10:10:54;96147.75;;;14.00;74.11
18850;BME280;4989;48.772;9.154;2023-03-14T10:16:03;96123.41;;;14.79;72.28
18850;BME280;4989;48.772;9.154;2023-03-14T10:21:28;96121.97;;;17.09;63.69
18850;BME280;4989;48.772;9.154;2023-03-14T10:26:34;96131.69;;;16.74;61.08
18850;BME280;4989;48.772;9.154;2023-03-14T10:31:51;96130.13;;;14.78;67.84
18850;BME280;4989;48.772;9.154;2023-03-14T10:36:57;96116.16;;;13.88;72.58
18850;BME280;4989;48.772;9.154;2023-03-14T10:42:06;96123.16;;;14.82;68.76
18850;BME280;4989;48.772;9.154;2023-03-14T10:47:18;96130.28;;;14.46;69.70
18850;BME280;4989;48.772;9.154;2023-03-14T10:52:24;96134.47;;;14.36;70.39
18850;BME280;4989;48.772;9.154;2023-03-14T10:57:43;96130.97;;;14.30;73.08
18850;BME280;4989;48.772;9.154;2023-03-14T11:03:10;96144.38;;;14.28;73.73
18850;BME280;4989;48.772;9.154;2023-03-14T11:35:52;96170.84;;;12.72;93.74
18850;BME280;4989;48.772;9.154;2023-03-14T11:40:57;96174.97;;;12.88;88.11
18850;BME280;4989;48.772;9.154;2023-03-14T11:46:05;96189.72;;;12.76;87.28
18850;BME280;4989;48.772;9.154;2023-03-14T11:51:36;96200.41;;;12.79;90.47
18850;BME280;4989;48.772;9.154;2023-03-14T11:56:48;96204.69;;;12.60;95.02
18850;BME280;4989;48.772;9.154;2023-03-14T12:01:58;96210.13;;;12.60;93.02
18850;BME280;4989;48.772;9.154;2023-03-14T12:07:09;96228.03;;;13.13;94.05
18850;BME280;4989;48.772;9.154;2023-03-14T12:12:22;96235.84;;;13.26;90.82
18850;BME280;4989;48.772;9.154;2023-03-14T12:17:38;96273.34;;;12.84;92.55
18850;BME280;4989;48.772;9.154;2023-03-14T12:38:40;96348.19;;;13.77;73.18
18850;BME280;4989;48.772;9.154;2023-03-14T12:43:45;96376.44;;;15.11;60.23
18850;BME280;4989;48.772;9.154;2023-03-14T12:49:05;96376.03;;;18.04;53.50
18850;BME280;4989;48.772;9.154;2023-03-14T12:59:28;96420.00;;;15.86;50.98
18850;BME280;4989;48.772;9.154;2023-03-14T13:04:33;96429.88;;;17.30;46.40
18850;BME280;4989;48.772;9.154;2023-03-14T13:15:13;96487.41;;;14.49;51.45
18850;BME280;4989;48.772;9.154;2023-03-14T13:20:35;96491.28;;;14.63;49.95
18850;BME280;4989;48.772;9.154;2023-03-14T13:25:39;96504.94;;;14.89;50.96
18850;BME280;4989;48.772;9.154;2023-03-14T13:30:46;96540.75;;;14.91;48.95
18850;BME280;4989;48.772;9.154;2023-03-14T13:40:59;96582.28;;;13.56;49.45
18850;BME280;4989;48.772;9.154;2023-03-14T13:46:15;96606.38;;;12.77;51.49
18850;BME280;4989;48.772;9.154;2023-03-14T13:51:20;96611.03;;;13.21;50.41
18850;BME280;4989;48.772;9.154;2023-03-14T13:56:28;96623.34;;;12.43;52.14
18850;BME280;4989;48.772;9.154;2023-03-14T14:01:32;96646.91;;;13.29;51.71
18850;BME280;4989;48.772;9.154;2023-03-14T14:06:37;96653.19;;;13.20;48.99
18850;BME280;4989;48.772;9.154;2023-03-14T14:11:47;96675.50;;;11.78;47.94
18850;BME280;4989;48.772;9.154;2023-03-14T14:17:15;96709.91;;;12.00;48.58
18850;BME280;4989;48.772;9.154;2023-03-14T14:22:20;96726.50;;;12.11;48.73
18850;BME280;4989;48.772;9.154;2023-03-14T14:27:50;96760.75;;;11.94;48.65
18850;BME280;4989;48.772;9.154;2023-03-14T14:33:06;96756.38;;;11.35;48.88
18850;BME280;4989;48.772;9.154;2023-03-14T14:38:17;96752.41;;;11.55;48.91
18850;BME280;4989;48.772;9.154;2023-03-14T14:43:27;96779.66;;;11.36;49.71
18850;BME280;4989;48.772;9.154;2023-03-14T14:48:30;96785.44;;;10.92;50.63
18850;BME280;4989;48.772;9.154;2023-03-14T14:53:43;96790.56;;;10.90;51.74
18850;BME280;4989;48.772;9.154;2023-03-14T14:58:46;96793.28;;;10.72;51.22
18850;BME280;4989;48.772;9.154;2023-03-14T15:03:51;96796.59;;;11.13;50.93
18850;BME280;4989;48.772;9.154;2023-03-14T15:08:54;96808.69;;;11.30;50.78
18850;BME280;4989;48.772;9.154;2023-03-14T15:13:57;96797.81;;;11.12;50.53
18850;BME280;4989;48.772;9.154;2023-03-14T15:19:02;96823.38;;;11.84;50.33
18850;BME280;4989;48.772;9.154;2023-03-14T15:24:24;96811.34;;;11.58;50.07
18850;BME280;4989;48.772;9.154;2023-03-14T15:29:27;96810.47;;;11.42;50.99
18850;BME280;4989;48.772;9.154;2023-03-14T15:34:31;96810.47;;;11.33;50.49
18850;BME280;4989;48.772;9.154;2023-03-14T15:39:34;96822.44;;;10.99;51.92
18850;BME280;4989;48.772;9.154;2023-03-14T15:44:37;96824.09;;;11.06;52.66
18850;BME280;4989;48.772;9.154;2023-03-14T15:49:41;96829.84;;;10.89;52.21
18850;BME280;4989;48.772;9.154;2023-03-14T15:54:43;96827.13;;;10.98;53.13
18850;BME280;4989;48.772;9.154;2023-03-14T15:59:46;96849.31;;;11.24;53.06
18850;BME280;4989;48.772;9.154;2023-03-14T16:04:48;96864.13;;;11.05;52.68
18850;BME280;4989;48.772;9.154;2023-03-14T16:09:51;96861.75;;;10.48;53.63
18850;BME280;4989;48.772;9.154;2023-03-14T16:14:54;96879.19;;;10.78;54.01
18850;BME280;4989;48.772;9.154;2023-03-14T16:19:56;96876.00;;;10.80;54.14
18850;BME280;4989;48.772;9.154;2023-03-14T16:24:59;96884.63;;;10.78;54.04
18850;BME280;4989;48.772;9.154;2023-03-14T16:30:02;96888.91;;;10.48;55.55
18850;BME280;4989;48.772;9.154;2023-03-14T16:35:05;96891.66;;;10.58;55.02
18850;BME280;4989;48.772;9.154;2023-03-14T16:40:08;96898.00;;;10.54;55.54
18850;BME280;4989;48.772;9.154;2023-03-14T16:45:14;96911.81;;;10.38;56.25
18850;BME280;4989;48.772;9.154;2023-03-14T16:50:17;96906.44;;;10.47;56.41
18850;BME280;4989;48.772;9.154;2023-03-14T16:55:20;96918.38;;;10.50;56.56
18850;BME280;4989;48.772;9.154;2023-03-14T17:00:23;96925.44;;;10.47;56.95
18850;BME280;4989;48.772;9.154;2023-03-14T17:05:25;96938.38;;;10.43;56.79
18850;BME280;4989;48.772;9.154;2023-03-14T17:10:28;96948.91;;;10.32;56.60
18850;BME280;4989;48.772;9.154;2023-03-14T17:15:30;96952.59;;;10.47;56.64
18850;BME280;4989;48.772;9.154;2023-03-14T17:20:33;96967.25;;;10.50;56.99
18850;BME280;4989;48.772;9.154;2023-03-14T17:25:36;96995.25;;;10.69;58.99
18850;BME280;4989;48.772;9.154;2023-03-14T17:30:39;96997.53;;;11.11;65.06
18850;BME280;4989;48.772;9.154;2023-03-14T17:35:44;97038.34;;;11.20;68.94
18850;BME280;4989;48.772;9.154;2023-03-14T17:40:47;97028.72;;;10.57;73.43
18850;BME280;4989;48.772;9.154;2023-03-14T17:46:01;97047.16;;;9.48;79.28
18850;BME280;4989;48.772;9.154;2023-03-14T17:51:08;97047.09;;;9.13;82.33
18850;BME280;4989;48.772;9.154;2023-03-14T17:56:11;97054.03;;;8.89;84.71
18850;BME280;4989;48.772;9.154;2023-03-14T18:01:16;97067.78;;;8.94;83.77
18850;BME280;4989;48.772;9.154;2023-03-14T18:06:19;97091.75;;;8.96;88.96
18850;BME280;4989;48.772;9.154;2023-03-14T18:11:22;97132.41;;;8.54;87.89
18850;BME280;4989;48.772;9.154;2023-03-14T18:16:25;97126.97;;;8.25;97.46
18850;BME280;4989;48.772;9.154;2023-03-14T18:21:27;97121.00;;;8.17;93.36
18850;BME280;4989;48.772;9.154;2023-03-14T18:26:31;97115.63;;;7.85;96.75
18850;BME280;4989;48.772;9.154;2023-03-14T18:31:34;97116.34;;;7.20;99.08
18850;BME280;4989;48.772;9.154;2023-03-14T18:36:37;97102.44;;;7.38;100.00
18850;BME280;4989;48.772;9.154;2023-03-14T18:41:40;97124.53;;;7.16;100.00
18850;BME280;4989;48.772;9.154;2023-03-14T18:46:42;97131.50;;;7.33;98.85
18850;BME280;4989;48.772;9.154;2023-03-14T18:51:45;97142.50;;;7.26;94.14
18850;BME280;4989;48.772;9.154;2023-03-14T18:56:47;97141.28;;;7.27;90.65
18850;BME280;4989;48.772;9.154;2023-03-14T19:01:50;97159.56;;;7.40;89.58
18850;BME280;4989;48.772;9.154;2023-03-14T19:06:53;97163.91;;;7.53;87.61
18850;BME280;4989;48.772;9.154;2023-03-14T19:11:55;97180.78;;;7.57;87.42
18850;BME280;4989;48.772;9.154;2023-03-14T19:16:58;97186.94;;;7.42;87.47
18850;BME280;4989;48.772;9.154;2023-03-14T19:22:00;97193.47;;;7.24;86.07
18850;BME280;4989;48.772;9.154;2023-03-14T19:27:03;97194.47;;;7.14;84.45
18850;BME280;4989;48.772;9.154;2023-03-14T19:32:06;97202.63;;;7.10;85.32
18850;BME280;4989;48.772;9.154;2023-03-14T19:37:08;97213.03;;;7.12;85.43
18850;BME280;4989;48.772;9.154;2023-03-14T19:42:11;97209.84;;;7.17;85.38
18850;BME280;4989;48.772;9.154;2023-03-14T19:47:14;97217.53;;;7.19;84.68
18850;BME280;4989;48.772;9.154;2023-03-14T19:52:17;97221.19;;;7.28;84.94
18850;BME280;4989;48.772;9.154;2023-03-14T19:57:19;97222.91;;;7.39;83.77
18850;BME280;4989;48.772;9.154;2023-03-14T20:02:23;97226.25;;;7.26;84.22
18850;BME280;4989;48.772;9.154;2023-03-14T20:07:25;97238.22;;;7.25;83.94
18850;BME280;4989;48.772;9.154;2023-03-14T20:12:32;97244.91;;;7.57;83.24
18850;BME280;4989;48.772;9.154;2023-03-14T20:17:35;97238.84;;;7.69;81.99
18850;BME280;4989;48.772;9.154;2023-03-14T20:22:40;97244.28;;;7.69;82.06
18850;BME280;4989;48.772;9.154;2023-03-14T20:27:43;97253.63;;;7.65;81.60
18850;BME280;4989;48.772;9.154;2023-03-14T20:32:48;97261.69;;;7.85;82.94
18850;BME280;4989;48.772;9.154;2023-03-14T20:37:52;97258.50;;;8.06;80.54
18850;BME280;4989;48.772;9.154;2023-03-14T20:42:55;97262.91;;;8.00;78.85
18850;BME280;4989;48.772;9.154;2023-03-14T20:47:58;97270.66;;;7.98;78.81
18850;BME280;4989;48.772;9.154;2023-03-14T20:53:03;97276.47;;;7.80;79.45
18850;BME280;4989;48.772;9.154;2023-03-14T20:58:06;97275.03;;;7.75;80.92
18850;BME280;4989;48.772;9.154;2023-03-14T21:03:09;97271.41;;;7.98;80.67
18850;BME280;4989;48.772;9.154;2023-03-14T21:08:12;97277.19;;;7.84;78.87
18850;BME280;4989;48.772;9.154;2023-03-14T21:13:16;97281.66;;;7.91;79.33
18850;BME280;4989;48.772;9.154;2023-03-14T21:18:18;97291.81;;;7.87;80.12
18850;BME280;4989;48.772;9.154;2023-03-14T21:23:24;97294.75;;;7.56;82.04
18850;BME280;4989;48.772;9.154;2023-03-14T21:28:30;97297.00;;;7.21;89.84
18850;BME280;4989;48.772;9.154;2023-03-14T21:33:33;97302.63;;;7.30;89.37
18850;BME280;4989;48.772;9.154;2023-03-14T21:38:36;97295.91;;;7.39;89.24
18850;BME280;4989;48.772;9.154;2023-03-14T21:43:40;97308.38;;;7.32;91.55
18850;BME280;4989;48.772;9.154;2023-03-14T21:48:45;97312.13;;;7.39;92.56
18850;BME280;4989;48.772;9.154;2023-03-14T21:53:47;97307.97;;;7.14;95.15
18850;BME280;4989;48.772;9.154;2023-03-14T21:58:50;97299.91;;;7.30;95.20
18850;BME280;4989;48.772;9.154;2023-03-14T22:03:53;97300.59;;;7.34;93.08
18850;BME280;4989;48.772;9.154;2023-03-14T22:08:56;97303.03;;;7.49;94.15
18850;BME280;4989;48.772;9.154;2023-03-14T22:13:58;97309.22;;;7.29;91.54
18850;BME280;4989;48.772;9.154;2023-03-14T22:19:01;97315.31;;;7.33;91.51
18850;BME280;4989;48.772;9.154;2023-03-14T22:24:03;97314.25;;;7.27;92.04
18850;BME280;4989;48.772;9.154;2023-03-14T22:29:06;97380.25;;;7.30;94.22
18850;BME280;4989;48.772;9.154;2023-03-14T22:34:09;97397.47;;;7.16;98.25
18850;BME280;4989;48.772;9.154;2023-03-14T22:39:11;97420.34;;;7.31;96.61
18850;BME280;4989;48.772;9.154;2023-03-14T22:44:14;97429.19;;;7.36;100.00
18850;BME280;4989;48.772;9.154;2023-03-14T22:49:17;97448.50;;;7.10;94.55
18850;BME280;4989;48.772;9.154;2023-03-14T22:54:19;97456.69;;;7.30;97.36
18850;BME280;4989;48.772;9.154;2023-03-14T22:59:22;97486.09;;;7.25;93.34
18850;BME280;4989;48.772;9.154;2023-03-14T23:04:25;97503.88;;;6.72;93.09
18850;BME280;4989;48.772;9.154;2023-03-14T23:09:28;97503.47;;;7.00;93.67
18850;BME280;4989;48.772;9.154;2023-03-14T23:14:31;97522.75;;;7.02;92.10
18850;BME280;4989;48.772;9.154;2023-03-14T23:19:33;97535.84;;;7.04;99.98
18850;BME280;4989;48.772;9.154;2023-03-14T23:24:40;97541.94;;;7.58;100.00
18850;BME280;4989;48.772;9.154;2023-03-14T23:29:45;97558.81;;;7.90;87.21
18850;BME280;4989;48.772;9.154;2023-03-14T23:34:48;97572.56;;;7.52;93.31
18850;BME280;4989;48.772;9.154;2023-03-14T23:39:51;97578.94;;;5.78;94.44
18850;BME280;4989;48.772;9.154;2023-03-14T23:44:54;97584.59;;;5.49;100.00
18850;BME280;4989;48.772;9.154;2023-03-14T23:49:56;97575.69;;;6.38;100.00
18850;BME280;4989;48.772;9.154;2023-03-14T23:54:59;97570.53;;;7.60;100.00
